createdAt,value
2024-04-08T08:43:01.368Z,9.20
2024-04-08T08:48:04.393Z,8.73
2024-04-08T08:53:06.210Z,8.10
2024-04-08T08:58:08.327Z,8.13
2024-04-08T09:03:17.774Z,7.57
2024-04-08T09:08:19.478Z,7.20
2024-04-08T09:13:22.185Z,7.30
2024-04-08T09:18:24.033Z,5.95
2024-04-08T09:23:26.503Z,6.13
2024-04-08T09:28:32.261Z,6.47
2024-04-08T09:33:35.094Z,6.25
2024-04-08T09:38:39.857Z,5.30
2024-04-08T09:43:41.583Z,5.82
2024-04-08T09:48:43.554Z,5.28
2024-04-08T09:53:45.359Z,4.75
2024-04-08T09:59:06.129Z,5.03
2024-04-08T10:04:14.746Z,4.45
2024-04-08T10:09:18.329Z,4.60
2024-04-08T10:14:25.237Z,4.78
2024-04-08T10:19:27.076Z,5.20
2024-04-08T10:24:38.728Z,4.20
2024-04-08T10:29:45.069Z,2.80
2024-04-08T10:34:47.115Z,3.10
2024-04-08T10:39:48.831Z,3.42
2024-04-08T10:44:50.614Z,3.85
2024-04-08T10:49:52.454Z,4.07
2024-04-08T10:54:54.181Z,4.07
2024-04-08T10:59:56.016Z,3.85
2024-04-08T11:04:57.855Z,4.25
2024-04-08T11:10:00.369Z,3.70
2024-04-08T11:15:03.791Z,3.30
2024-04-08T11:20:07.633Z,3.80
2024-04-08T11:25:19.263Z,3.83
2024-04-08T11:30:21.358Z,3.50
2024-04-08T11:35:26.537Z,3.28
2024-04-08T11:40:28.224Z,3.20
2024-04-08T11:45:33.488Z,3.17
2024-04-08T11:50:36.396Z,2.78
2024-04-08T11:55:39.831Z,2.65
2024-04-08T12:00:41.614Z,2.47
2024-04-08T12:05:44.968Z,2.03
2024-04-08T12:10:47.138Z,2.33
2024-04-08T12:15:49.506Z,2.03
2024-04-08T12:20:51.199Z,1.80
2024-04-08T12:25:52.952Z,2.10
2024-04-08T12:30:58.410Z,1.98
2024-04-08T12:36:02.828Z,1.40
2024-04-08T12:41:04.942Z,1.67
2024-04-08T12:46:06.920Z,1.80
2024-04-08T12:51:09.170Z,1.73
2024-04-08T12:56:12.753Z,1.60
2024-04-08T13:01:15.192Z,1.55
2024-04-08T13:06:17.254Z,1.48
2024-04-08T13:11:19.140Z,1.33
2024-04-08T13:16:21.255Z,1.40
2024-04-08T13:21:27.658Z,1.55
2024-04-08T13:26:32.998Z,1.80
2024-04-08T13:31:34.713Z,1.42
2024-04-08T13:36:36.523Z,1.63
2024-04-08T13:41:38.256Z,1.17
2024-04-08T13:46:40.629Z,1.35
2024-04-08T13:51:42.344Z,1.30
2024-04-08T13:56:44.364Z,1.30
2024-04-08T14:01:46.186Z,1.35
2024-04-08T14:06:48.292Z,1.40
2024-04-08T14:11:50.013Z,1.40
2024-04-08T14:16:51.890Z,1.35
2024-04-08T14:21:53.578Z,1.73
2024-04-08T14:26:55.783Z,1.70
2024-04-08T14:31:57.524Z,1.60
2024-04-08T14:36:59.406Z,1.40
2024-04-08T14:42:01.392Z,1.70
2024-04-08T14:47:03.288Z,1.77
2024-04-08T14:52:10.308Z,1.38
2024-04-08T14:57:14.749Z,1.60
2024-04-08T15:02:16.515Z,1.77
2024-04-08T15:07:25.777Z,1.52
2024-04-08T15:12:30.295Z,1.60
2024-04-08T15:17:34.137Z,1.45
2024-04-08T15:22:36.034Z,1.40
2024-04-08T15:27:38.322Z,1.50
2024-04-08T15:32:42.026Z,1.45
2024-04-08T15:37:44.111Z,1.40
2024-04-08T15:42:45.787Z,1.77
2024-04-08T15:47:47.879Z,1.50
2024-04-08T15:52:49.754Z,1.52
2024-04-08T15:57:51.866Z,1.52
2024-04-08T16:02:53.780Z,1.40
2024-04-08T16:07:55.728Z,1.67
2024-04-08T16:12:57.500Z,1.48
2024-04-08T16:17:59.507Z,1.27
2024-04-08T16:23:15.116Z,1.85
2024-04-08T16:28:23.262Z,1.90
2024-04-08T16:33:25.088Z,1.60
2024-04-08T16:38:27.107Z,1.40
2024-04-08T16:43:29.437Z,1.48
2024-04-08T16:48:31.278Z,1.52
2024-04-08T16:53:33.152Z,1.95
2024-04-08T16:58:34.916Z,1.63
2024-04-08T17:03:36.861Z,2.03
2024-04-08T17:08:38.823Z,1.65
2024-04-08T17:13:40.632Z,1.70
2024-04-08T17:18:42.768Z,1.80
2024-04-08T17:23:44.621Z,1.95
2024-04-08T17:28:46.419Z,2.05
2024-04-08T17:33:49.614Z,1.67
2024-04-08T17:38:51.699Z,1.80
2024-04-08T17:43:57.339Z,1.60
2024-04-08T17:49:00.066Z,1.67
2024-04-08T17:54:02.119Z,2.25
2024-04-08T17:59:03.987Z,2.28
2024-04-08T18:04:06.097Z,1.48
2024-04-08T18:09:08.199Z,2.17
2024-04-08T18:14:10.112Z,1.50
2024-04-08T18:19:11.995Z,1.50
2024-04-08T18:24:13.804Z,1.77
2024-04-08T18:29:15.652Z,1.98
2024-04-08T18:34:18.706Z,1.77
2024-04-08T18:39:21.036Z,1.65
2024-04-08T18:44:22.840Z,1.85
2024-04-08T18:49:25.298Z,2.05
2024-04-08T18:54:27.400Z,1.98
2024-04-08T18:59:29.331Z,2.33
2024-04-08T19:10:01.455Z,2.28
2024-04-08T19:15:04.921Z,2.08
2024-04-08T19:20:07.610Z,1.88
2024-04-08T19:25:09.333Z,1.70
2024-04-08T19:30:11.597Z,1.80
2024-04-08T19:35:13.348Z,2.00
2024-04-08T19:40:17.202Z,2.17
2024-04-08T19:45:25.046Z,1.90
2024-04-08T19:50:33.334Z,2.50
2024-04-08T19:55:35.286Z,2.28
2024-04-08T20:00:37.221Z,2.33
2024-04-08T20:05:40.008Z,2.35
2024-04-08T20:10:41.736Z,2.03
2024-04-08T20:15:43.765Z,2.00
2024-04-08T20:20:50.287Z,1.80
2024-04-08T20:25:53.107Z,2.13
2024-04-08T20:30:59.189Z,2.03
2024-04-08T20:36:03.157Z,2.53
2024-04-08T20:41:06.811Z,2.05
2024-04-08T20:46:09.150Z,2.07
2024-04-08T20:51:11.370Z,2.40
2024-04-08T20:56:13.144Z,2.10
2024-04-08T21:01:16.060Z,2.23
2024-04-08T21:06:20.533Z,2.17
2024-04-08T21:11:22.600Z,2.70
2024-04-08T21:16:25.025Z,2.50
2024-04-08T21:21:26.754Z,2.40
2024-04-08T21:26:28.719Z,2.30
2024-04-08T21:31:30.490Z,2.17
2024-04-08T21:36:33.133Z,2.20
2024-04-08T21:41:36.577Z,2.37
2024-04-08T21:46:39.026Z,2.27
2024-04-08T21:51:41.019Z,2.20
2024-04-08T21:56:42.918Z,2.63
2024-04-08T22:01:44.703Z,2.20
2024-04-08T22:06:46.430Z,2.57
2024-04-08T22:11:48.676Z,2.10
2024-04-08T22:16:50.626Z,1.97
2024-04-08T22:21:53.092Z,2.05
2024-04-08T22:26:54.893Z,2.05
2024-04-08T22:31:56.783Z,1.90
2024-04-08T22:36:59.606Z,1.80
2024-04-08T22:42:01.633Z,1.90
2024-04-08T22:47:04.092Z,1.70
2024-04-08T22:52:06.384Z,2.72
2024-04-08T22:57:08.166Z,2.20
2024-04-08T23:02:10.580Z,1.73
2024-04-08T23:07:12.781Z,1.30
2024-04-08T23:12:14.940Z,1.83
2024-04-08T23:17:18.866Z,2.05
2024-04-08T23:22:20.668Z,1.70
2024-04-08T23:27:22.448Z,1.67
2024-04-08T23:32:24.351Z,2.30
2024-04-08T23:37:26.091Z,2.55
2024-04-08T23:42:28.116Z,1.95
2024-04-08T23:47:30.073Z,2.67
2024-04-08T23:52:32.051Z,2.63
2024-04-08T23:57:33.859Z,1.98
